createdAt,value
2022-10-06T00:04:27.111Z,1.27
2022-10-06T00:09:32.212Z,0.60
2022-10-06T00:14:35.942Z,1.05
2022-10-06T00:19:39.727Z,0.50
2022-10-06T00:24:44.739Z,0.70
2022-10-06T00:29:48.374Z,0.85
2022-10-06T00:34:54.125Z,0.70
2022-10-06T00:39:59.206Z,0.98
2022-10-06T00:45:06.833Z,0.52
2022-10-06T00:50:12.692Z,1.13
2022-10-06T00:55:20.273Z,0.73
2022-10-06T01:00:24.049Z,0.52
2022-10-06T01:05:31.601Z,0.63
2022-10-06T01:10:36.941Z,0.88
2022-10-06T01:15:45.501Z,0.70
2022-10-06T01:20:53.950Z,0.82
2022-10-06T01:25:59.644Z,0.52
2022-10-06T01:31:04.800Z,0.82
2022-10-06T01:36:09.513Z,1.05
2022-10-06T01:41:14.598Z,1.02
2022-10-06T01:46:18.463Z,0.55
2022-10-06T01:51:22.497Z,0.85
2022-10-06T01:56:27.702Z,0.85
2022-10-06T02:01:31.618Z,0.93
2022-10-06T02:06:35.857Z,0.57
2022-10-06T02:11:42.061Z,0.88
2022-10-06T02:16:46.327Z,0.60
2022-10-06T02:21:50.586Z,1.38
2022-10-06T02:26:55.903Z,0.82
2022-10-06T02:31:59.900Z,0.80
2022-10-06T02:37:05.500Z,0.80
2022-10-06T02:42:11.212Z,0.63
2022-10-06T02:47:16.403Z,0.80
2022-10-06T02:52:20.324Z,1.33
2022-10-06T02:57:26.717Z,0.90
2022-10-06T03:02:31.458Z,0.70
2022-10-06T03:07:35.499Z,0.80
2022-10-06T03:12:41.069Z,0.73
2022-10-06T03:17:49.114Z,0.60
2022-10-06T03:22:54.730Z,0.70
2022-10-06T03:27:59.963Z,0.93
2022-10-06T03:33:08.404Z,0.80
2022-10-06T03:38:12.694Z,0.93
2022-10-06T03:43:18.083Z,0.80
2022-10-06T03:48:21.908Z,1.02
2022-10-06T03:53:28.429Z,1.33
2022-10-06T03:58:36.355Z,1.88
2022-10-06T04:03:40.221Z,1.17
2022-10-06T04:08:44.988Z,1.38
2022-10-06T04:13:54.884Z,1.27
2022-10-06T04:19:00.426Z,1.75
2022-10-06T04:24:04.886Z,1.02
2022-10-06T04:29:10.211Z,0.95
2022-10-06T04:34:14.285Z,1.58
2022-10-06T04:39:19.298Z,0.98
2022-10-06T04:44:25.557Z,1.58
2022-10-06T04:49:31.751Z,1.70
2022-10-06T04:54:35.696Z,1.15
2022-10-06T05:00:05.476Z,1.40
2022-10-06T05:05:12.002Z,1.02
2022-10-06T05:10:15.881Z,1.30
2022-10-06T05:15:21.957Z,1.42
2022-10-06T05:20:26.124Z,1.40
2022-10-06T05:25:30.653Z,1.40
2022-10-06T05:30:35.950Z,1.48
2022-10-06T05:35:39.953Z,1.70
2022-10-06T05:40:43.728Z,1.35
2022-10-06T05:45:56.543Z,2.13
2022-10-06T05:51:01.413Z,1.50
2022-10-06T05:56:08.027Z,2.05
2022-10-06T06:01:15.678Z,1.42
2022-10-06T06:06:23.021Z,1.70
2022-10-06T06:11:31.337Z,1.38
2022-10-06T06:16:39.259Z,1.27
2022-10-06T06:21:43.183Z,1.35
2022-10-06T06:26:48.243Z,1.35
2022-10-06T06:31:53.409Z,2.20
2022-10-06T06:37:03.607Z,2.00
2022-10-06T06:42:11.501Z,2.00
2022-10-06T06:47:19.163Z,1.40
2022-10-06T06:52:26.118Z,1.63
2022-10-06T06:57:30.570Z,2.35
2022-10-06T07:02:37.932Z,2.13
2022-10-06T07:07:41.846Z,1.63
2022-10-06T07:12:47.022Z,1.67
2022-10-06T07:18:09.510Z,1.40
2022-10-06T07:23:35.781Z,1.77
2022-10-06T07:28:42.510Z,2.08
2022-10-06T07:33:48.860Z,1.42
2022-10-06T07:38:52.739Z,2.17
2022-10-06T07:43:56.464Z,1.55
2022-10-06T07:49:04.446Z,1.67
2022-10-06T07:54:08.908Z,1.27
2022-10-06T07:59:35.773Z,1.40
2022-10-06T08:04:40.841Z,1.58
2022-10-06T08:09:44.762Z,1.58
2022-10-06T08:14:48.870Z,1.98
2022-10-06T08:19:54.485Z,1.70
2022-10-06T08:25:06.278Z,2.58
2022-10-06T08:30:12.492Z,2.42
2022-10-06T08:35:17.567Z,1.33
2022-10-06T08:40:21.584Z,1.48
2022-10-06T08:45:33.979Z,2.13
2022-10-06T08:50:50.500Z,1.70
2022-10-06T08:55:58.349Z,1.88
2022-10-06T09:01:16.200Z,2.03
2022-10-06T09:06:42.362Z,2.45
2022-10-06T09:11:54.599Z,1.80
2022-10-06T09:17:03.844Z,1.52
2022-10-06T09:22:18.032Z,1.10
2022-10-06T09:27:24.797Z,1.38
2022-10-06T09:32:31.852Z,1.13
2022-10-06T09:37:54.539Z,2.05
2022-10-06T09:42:58.374Z,1.45
2022-10-06T09:48:13.700Z,1.20
2022-10-06T09:53:18.710Z,1.40
2022-10-06T09:58:26.549Z,1.45
2022-10-06T10:04:08.382Z,1.52
2022-10-06T10:09:27.475Z,1.13
2022-10-06T10:14:37.954Z,1.60
2022-10-06T10:19:43.527Z,0.98
2022-10-06T10:24:58.247Z,1.13
2022-10-06T10:30:06.556Z,0.95
2022-10-06T10:35:21.558Z,0.90
2022-10-06T10:40:43.765Z,0.50
2022-10-06T10:45:51.663Z,0.63
2022-10-06T10:51:02.510Z,0.70
2022-10-06T10:56:10.380Z,0.55
2022-10-06T11:01:25.734Z,0.65
2022-10-06T11:07:08.281Z,0.68
2022-10-06T11:12:33.806Z,0.85
2022-10-06T11:17:45.376Z,0.60
2022-10-06T11:22:55.374Z,0.63
2022-10-06T11:28:12.469Z,0.70
2022-10-06T11:33:21.809Z,0.57
2022-10-06T11:38:31.535Z,0.85
2022-10-06T11:43:42.020Z,0.88
2022-10-06T11:48:46.698Z,0.70
2022-10-06T11:53:50.475Z,0.77
2022-10-06T11:59:31.300Z,0.75
2022-10-06T12:04:35.075Z,1.55
2022-10-06T12:09:51.673Z,0.80
2022-10-06T12:16:55.256Z,0.60
2022-10-06T12:20:42.730Z,0.90
2022-10-06T12:25:52.521Z,0.82
2022-10-06T12:31:17.960Z,0.65
2022-10-06T12:36:25.314Z,0.53
2022-10-06T12:47:03.977Z,0.70
2022-10-06T12:52:31.419Z,0.80
2022-10-06T12:57:46.827Z,1.20
2022-10-06T13:02:55.492Z,0.80
2022-10-06T13:08:00.956Z,0.82
2022-10-06T13:13:23.807Z,0.50
2022-10-06T13:18:32.020Z,0.63
2022-10-06T13:23:37.890Z,0.50
2022-10-06T13:28:49.183Z,0.88
2022-10-06T13:33:59.376Z,0.57
2022-10-06T13:39:06.006Z,0.80
2022-10-06T13:44:32.083Z,0.60
2022-10-06T13:49:48.677Z,0.82
2022-10-06T13:54:54.943Z,0.60
2022-10-06T14:00:17.515Z,1.07
2022-10-06T14:05:32.678Z,0.88
2022-10-06T14:10:47.272Z,1.20
2022-10-06T14:15:53.233Z,1.20
2022-10-06T14:20:59.232Z,0.90
2022-10-06T14:26:03.084Z,0.90
2022-10-06T14:31:10.762Z,1.10
2022-10-06T14:36:21.887Z,3.10
2022-10-06T14:41:28.524Z,1.00
2022-10-06T14:46:32.846Z,1.23
2022-10-06T14:51:39.829Z,1.23
2022-10-06T15:01:49.878Z,1.83
2022-10-06T15:07:12.547Z,0.80
2022-10-06T15:12:16.340Z,1.13
2022-10-06T15:17:20.086Z,1.30
2022-10-06T15:22:26.086Z,1.27
2022-10-06T15:27:47.147Z,1.27
2022-10-06T15:32:51.271Z,1.23
2022-10-06T15:37:56.455Z,1.20
2022-10-06T15:43:00.297Z,1.00
2022-10-06T15:48:04.099Z,1.00
2022-10-06T15:53:09.271Z,1.27
2022-10-06T15:58:14.679Z,0.80
2022-10-06T16:03:38.705Z,0.75
2022-10-06T16:08:46.261Z,0.90
2022-10-06T16:13:50.156Z,0.95
2022-10-06T16:18:54.161Z,0.82
2022-10-06T16:23:59.709Z,0.73
2022-10-06T16:29:03.685Z,0.95
2022-10-06T16:34:07.869Z,0.70
2022-10-06T16:39:15.567Z,0.60
2022-10-06T16:44:19.489Z,0.50
2022-10-06T16:49:24.556Z,0.50
2022-10-06T16:54:29.945Z,1.00
2022-10-06T16:59:34.413Z,0.65
2022-10-06T17:04:38.960Z,1.00
2022-10-06T17:10:01.605Z,1.45
2022-10-06T17:15:10.137Z,1.27
2022-10-06T17:20:14.734Z,0.80
2022-10-06T17:25:20.041Z,0.88
2022-10-06T17:30:24.385Z,1.00
2022-10-06T17:35:28.219Z,1.40
2022-10-06T17:40:33.293Z,0.82
2022-10-06T17:45:39.444Z,1.35
2022-10-06T17:50:43.629Z,1.23
2022-10-06T17:55:52.716Z,1.17
2022-10-06T18:00:56.973Z,1.30
2022-10-06T18:06:01.016Z,1.35
2022-10-06T18:11:25.219Z,1.20
2022-10-06T18:16:31.405Z,1.00
2022-10-06T18:21:38.929Z,1.33
2022-10-06T18:26:44.694Z,2.03
2022-10-06T18:31:51.335Z,0.93
2022-10-06T18:36:55.161Z,2.20
2022-10-06T18:42:03.051Z,1.40
2022-10-06T18:47:24.320Z,1.25
2022-10-06T18:52:28.482Z,1.80
2022-10-06T18:57:33.637Z,1.30
2022-10-06T19:02:37.498Z,1.83
2022-10-06T19:07:41.471Z,1.50
2022-10-06T19:12:48.350Z,1.38
2022-10-06T19:17:52.270Z,1.20
2022-10-06T19:22:56.037Z,1.00
2022-10-06T19:28:01.462Z,1.80
2022-10-06T19:33:05.765Z,2.05
2022-10-06T19:38:09.448Z,1.30
2022-10-06T19:43:14.703Z,1.80
2022-10-06T19:48:20.066Z,2.22
2022-10-06T19:53:23.825Z,1.45
2022-10-06T19:58:29.328Z,1.70
2022-10-06T20:03:37.677Z,1.25
2022-10-06T20:08:42.995Z,2.63
2022-10-06T20:13:48.466Z,1.70
2022-10-06T20:18:52.224Z,1.58
2022-10-06T20:23:58.469Z,1.85
2022-10-06T20:29:10.045Z,1.80
2022-10-06T20:34:16.342Z,1.42
2022-10-06T20:39:40.326Z,1.50
2022-10-06T20:44:46.012Z,1.60
2022-10-06T20:49:55.392Z,1.55
2022-10-06T20:55:02.816Z,1.50
2022-10-06T21:05:12.627Z,2.10
2022-10-06T21:10:18.009Z,1.60
2022-10-06T21:15:23.354Z,2.25
2022-10-06T21:20:27.203Z,1.63
2022-10-06T21:25:30.886Z,1.38
2022-10-06T21:30:36.040Z,1.98
2022-10-06T21:35:39.843Z,1.70
2022-10-06T21:40:43.485Z,1.83
2022-10-06T21:46:04.995Z,1.80
2022-10-06T21:51:14.663Z,2.35
2022-10-06T21:56:18.489Z,2.30
2022-10-06T22:01:25.215Z,1.70
2022-10-06T22:06:30.639Z,1.90
2022-10-06T22:11:36.533Z,1.75
2022-10-06T22:16:42.005Z,1.90
2022-10-06T22:21:47.998Z,2.08
2022-10-06T22:26:51.798Z,2.05
2022-10-06T22:31:58.528Z,1.88
2022-10-06T22:37:02.417Z,2.10
2022-10-06T22:42:06.183Z,2.08
2022-10-06T22:47:11.231Z,2.05
2022-10-06T22:52:14.886Z,2.35
2022-10-06T22:57:18.557Z,1.98
2022-10-06T23:02:23.547Z,2.25
2022-10-06T23:07:29.263Z,2.50
2022-10-06T23:12:33.014Z,2.28
2022-10-06T23:17:38.266Z,2.35
2022-10-06T23:22:41.946Z,2.03
2022-10-06T23:27:46.059Z,2.35
2022-10-06T23:32:51.293Z,1.75
2022-10-06T23:37:55.015Z,2.10
2022-10-06T23:42:59.124Z,2.53
2022-10-06T23:48:04.100Z,2.40
2022-10-06T23:53:08.233Z,2.05
2022-10-06T23:58:11.926Z,2.10
